Time;durP1;ratioP1;P1;durP2;ratioP2;P2;SDS_P1;SDS_P2;PMS_P1;PMS_P2;Temp;Humidity;BMP_temperature;BMP_pressure;BME280_temperature;BME280_humidity;BME280_pressure;Samples;Min_cycle;Max_cycle;Signal;HPM_P1;HPM_P2
2021/04/13 00:00:02;;;;;;;3.60;2.72;;;6.60;68.70;6.80;100599.00;;;;332301;29;88075;-86
2021/04/13 00:00:19;;;;;;;3.88;2.55;;;6.60;68.50;6.90;100612.00;;;;336234;28;83511;-86
2021/04/13 00:00:33;;;;;;;3.97;2.13;;;6.60;68.30;6.90;100599.00;;;;336165;28;86403;-86
2021/04/13 00:00:44;;;;;;;3.42;1.80;;;6.60;68.30;6.80;100608.00;;;;336266;28;84956;-86
2021/04/13 00:01:35;;;;;;;2.97;1.80;;;6.60;68.50;6.80;100608.00;;;;337384;28;87104;-86
2021/04/13 00:01:47;;;;;;;4.93;2.33;;;6.60;68.40;6.90;100610.00;;;;333965;29;83458;-85
2021/04/13 00:02:45;;;;;;;5.05;2.40;;;6.60;68.60;6.80;100612.00;;;;334037;29;86446;-85
2021/04/13 00:02:59;;;;;;;4.82;2.35;;;6.60;68.50;6.70;100597.00;;;;334133;29;82420;-85
2021/04/13 00:03:10;;;;;;;5.35;2.13;;;6.60;68.50;6.80;100608.00;;;;336243;28;88479;-85
2021/04/13 00:03:22;;;;;;;5.10;2.13;;;6.50;68.70;6.70;100603.00;;;;333739;29;83652;-84
2021/04/13 00:03:33;;;;;;;3.25;2.13;;;6.60;68.60;6.80;100606.00;;;;335035;29;84212;-84
2021/04/13 00:04:11;;;;;;;3.65;2.45;;;6.60;68.60;6.90;100620.00;;;;336577;28;83598;-86
2021/04/13 00:04:22;;;;;;;5.45;2.70;;;6.50;68.30;6.90;100615.00;;;;336113;28;82869;-86
2021/04/13 00:04:34;;;;;;;4.28;2.28;;;6.60;68.60;6.90;100612.00;;;;331016;29;83994;-84
2021/04/13 00:04:47;;;;;;;5.10;2.38;;;6.50;68.60;6.90;100615.00;;;;334899;29;88260;-85
2021/04/13 00:05:11;;;;;;;3.97;2.33;;;6.60;68.60;6.80;100602.00;;;;334795;29;83421;-85
2021/04/13 00:05:40;;;;;;;3.80;2.38;;;6.60;68.60;6.80;100613.00;;;;332257;29;88048;-85
2021/04/13 00:05:52;;;;;;;4.63;2.60;;;6.60;68.70;6.90;100605.00;;;;336477;28;82696;-85
2021/04/13 00:06:03;;;;;;;4.55;2.33;;;6.60;68.50;6.80;100609.00;;;;334923;29;85832;-85
2021/04/13 00:06:26;;;;;;;5.20;2.15;;;6.60;68.70;6.90;100617.00;;;;332296;29;85345;-84
2021/04/13 00:06:58;;;;;;;4.60;2.30;;;6.60;68.60;6.90;100608.00;;;;333486;29;85054;-85
2021/04/13 00:07:10;;;;;;;4.85;2.17;;;6.60;68.60;6.70;100609.00;;;;335116;29;82517;-85
2021/04/13 00:07:22;;;;;;;4.90;2.13;;;6.60;68.50;6.80;100614.00;;;;330788;29;88541;-86
2021/04/13 00:07:34;;;;;;;4.05;2.60;;;6.60;68.60;6.80;100613.00;;;;332426;29;82340;-86
2021/04/13 00:07:47;;;;;;;3.47;2.58;;;6.60;68.70;6.80;100613.00;;;;333689;29;87813;-86
2021/04/13 00:08:02;;;;;;;3.80;2.42;;;6.60;68.70;6.80;100610.00;;;;333713;29;83285;-85
2021/04/13 00:08:19;;;;;;;4.43;2.17;;;6.60;68.60;6.80;100612.00;;;;332193;29;87878;-86
2021/04/13 00:08:31;;;;;;;3.42;1.98;;;6.60;68.40;6.70;100611.00;;;;333746;29;84764;-85
2021/04/13 00:08:45;;;;;;;3.08;2.17;;;6.60;68.30;6.60;100619.00;;;;335007;29;85773;-85
2021/04/13 00:09:06;;;;;;;2.97;2.50;;;6.60;68.50;6.70;100610.00;;;;330068;29;83396;-85
2021/04/13 00:09:31;;;;;;;3.00;2.30;;;6.60;68.50;6.80;100616.00;;;;331180;29;85295;-85
2021/04/13 00:09:43;;;;;;;3.95;2.35;;;6.60;68.60;6.80;100617.00;;;;333443;29;83504;-86
2021/04/13 00:09:56;;;;;;;4.95;2.28;;;6.50;68.50;6.70;100615.00;;;;331159;29;84527;-84
2021/04/13 00:10:34;;;;;;;5.25;2.20;;;6.60;68.90;6.80;100615.00;;;;332283;29;84880;-86
2021/04/13 00:10:52;;;;;;;3.35;2.10;;;6.60;68.60;6.80;100609.00;;;;333649;29;85723;-85
2021/04/13 00:11:08;;;;;;;3.63;2.13;;;6.60;68.50;6.80;100612.00;;;;334932;29;84006;-86
2021/04/13 00:11:20;;;;;;;3.63;2.25;;;6.60;68.50;6.80;100615.00;;;;332382;29;85643;-85
2021/04/13 00:11:31;;;;;;;4.30;2.72;;;6.60;68.50;6.80;100608.00;;;;333695;29;82408;-86
2021/04/13 00:11:47;;;;;;;4.40;3.08;;;6.60;68.50;6.80;100612.00;;;;333629;29;85338;-85
2021/04/13 00:12:04;;;;;;;4.10;2.83;;;6.60;68.50;6.80;100615.00;;;;335129;29;82595;-85
2021/04/13 00:12:30;;;;;;;4.57;2.33;;;6.60;68.50;6.70;100611.00;;;;334766;29;84430;-86
2021/04/13 00:12:41;;;;;;;3.15;2.10;;;6.60;68.40;6.70;100616.00;;;;333630;29;83463;-86
2021/04/13 00:12:53;;;;;;;2.90;2.17;;;6.60;68.40;6.80;100613.00;;;;333723;29;84022;-85
2021/04/13 00:13:05;;;;;;;4.22;2.10;;;6.60;68.40;6.80;100607.00;;;;332404;29;83337;-85
2021/04/13 00:13:16;;;;;;;4.65;2.03;;;6.60;68.40;6.80;100609.00;;;;334851;29;85360;-86
2021/04/13 00:13:29;;;;;;;4.00;1.90;;;6.60;68.30;6.80;100610.00;;;;335389;28;83597;-86
2021/04/13 00:13:41;;;;;;;3.40;2.33;;;6.60;68.40;6.70;100608.00;;;;334190;29;88021;-86
2021/04/13 00:14:00;;;;;;;4.28;2.53;;;6.60;68.50;6.80;100605.00;;;;335858;28;82296;-86
2021/04/13 00:14:16;;;;;;;5.68;2.42;;;6.60;68.50;6.80;100608.00;;;;334897;29;85630;-86
2021/04/13 00:14:30;;;;;;;4.35;2.95;;;6.50;68.50;6.80;100608.00;;;;332439;29;83228;-86
2021/04/13 00:14:47;;;;;;;3.72;3.30;;;6.60;68.70;6.90;100610.00;;;;335052;29;85798;-86
2021/04/13 00:15:09;;;;;;;3.65;2.67;;;6.60;68.90;6.80;100610.00;;;;332210;29;83439;-86
2021/04/13 00:15:49;;;;;;;4.00;2.40;;;6.60;68.90;6.70;100605.00;;;;332314;29;85588;-86
2021/04/13 00:16:22;;;;;;;4.10;2.50;;;6.50;68.70;6.80;100613.00;;;;332523;29;82357;-84
2021/04/13 00:16:34;;;;;;;4.20;2.47;;;6.50;68.70;6.80;100613.00;;;;334890;29;85870;-85
2021/04/13 00:16:47;;;;;;;3.80;2.45;;;6.50;69.60;6.70;100606.00;;;;333785;29;83381;-85
2021/04/13 00:17:02;;;;;;;3.17;2.13;;;6.50;69.10;6.60;100604.00;;;;336199;28;85094;-85
2021/04/13 00:17:16;;;;;;;3.70;2.30;;;6.50;68.90;6.70;100605.00;;;;333679;29;84023;-86
2021/04/13 00:17:29;;;;;;;3.95;2.33;;;6.50;68.90;6.70;100609.00;;;;330983;29;85174;-86
2021/04/13 00:17:42;;;;;;;3.35;2.47;;;6.50;68.90;6.70;100609.00;;;;332239;29;83915;-86
2021/04/13 00:17:55;;;;;;;3.70;2.55;;;6.50;69.00;6.60;100605.00;;;;334938;29;84028;-85
2021/04/13 00:18:08;;;;;;;4.43;2.45;;;6.40;69.10;6.70;100605.00;;;;336386;28;83383;-85
2021/04/13 00:18:27;;;;;;;9.43;2.50;;;6.40;69.10;6.60;100611.00;;;;333440;29;88833;-86
2021/04/13 00:18:41;;;;;;;8.60;2.72;;;6.40;68.90;6.60;100608.00;;;;334996;29;83309;-86
2021/04/13 00:18:52;;;;;;;3.35;2.45;;;6.40;69.00;6.60;100603.00;;;;333608;29;85436;-85
2021/04/13 00:19:05;;;;;;;3.70;2.45;;;6.40;69.10;6.70;100612.00;;;;333363;29;85357;-85
2021/04/13 00:19:30;;;;;;;4.32;2.58;;;6.40;69.10;6.70;100612.00;;;;333471;29;85297;-85
2021/04/13 00:20:09;;;;;;;4.05;2.67;;;6.40;68.90;6.60;100612.00;;;;337411;28;83334;-85
2021/04/13 00:20:38;;;;;;;4.18;2.60;;;6.50;69.00;6.60;100608.00;;;;336045;28;85642;-87
2021/04/13 00:21:06;;;;;;;5.15;2.50;;;6.40;68.80;6.50;100602.00;;;;335039;29;83338;-85
2021/04/13 00:21:28;;;;;;;6.28;2.53;;;6.40;69.00;6.60;100608.00;;;;333626;29;86046;-86
2021/04/13 00:21:43;;;;;;;7.53;2.70;;;6.40;68.90;6.70;100601.00;;;;334736;29;83298;-85
2021/04/13 00:21:54;;;;;;;4.40;2.70;;;6.40;69.00;6.60;100607.00;;;;333807;29;84079;-84
2021/04/13 00:22:06;;;;;;;3.95;2.47;;;6.40;69.60;6.50;100610.00;;;;335023;29;83227;-85
2021/04/13 00:22:18;;;;;;;4.18;2.47;;;6.40;69.00;6.60;100607.00;;;;331161;29;84318;-85
2021/04/13 00:22:29;;;;;;;3.92;2.42;;;6.40;69.10;6.60;100610.00;;;;334172;29;84090;-86
2021/04/13 00:22:41;;;;;;;3.83;2.05;;;6.40;69.50;6.70;100611.00;;;;337526;28;86262;-86
2021/04/13 00:22:53;;;;;;;2.95;2.00;;;6.40;69.20;6.70;100601.00;;;;335918;28;83268;-86
2021/04/13 00:23:04;;;;;;;2.78;1.80;;;6.40;70.10;6.70;100603.00;;;;336098;28;87470;-85
2021/04/13 00:23:16;;;;;;;2.80;1.90;;;6.40;69.80;6.60;100601.00;;;;334971;29;84459;-86
2021/04/13 00:23:27;;;;;;;3.08;1.90;;;6.40;69.60;6.50;100605.00;;;;336153;28;85227;-86
2021/04/13 00:23:39;;;;;;;4.20;2.30;;;6.40;69.30;6.60;100603.00;;;;336156;28;83389;-86
2021/04/13 00:23:51;;;;;;;4.78;2.58;;;6.40;69.20;6.50;100603.00;;;;334998;29;85012;-86
2021/04/13 00:24:10;;;;;;;4.66;2.48;;;6.40;69.30;6.60;100601.00;;;;333696;29;83495;-87
2021/04/13 00:24:22;;;;;;;3.58;2.42;;;6.40;69.30;6.60;100608.00;;;;330999;29;85872;-85
2021/04/13 00:24:34;;;;;;;3.63;2.60;;;6.40;69.30;6.70;100602.00;;;;335006;29;83423;-86
2021/04/13 00:24:45;;;;;;;3.97;2.50;;;6.30;69.20;6.70;100601.00;;;;331990;29;87428;-87
2021/04/13 00:24:57;;;;;;;4.38;2.25;;;6.30;69.30;6.70;100601.00;;;;333483;29;82566;-87
2021/04/13 00:25:10;;;;;;;4.70;2.20;;;6.40;69.40;6.70;100600.00;;;;333694;29;85528;-85
2021/04/13 00:25:34;;;;;;;5.03;2.47;;;6.30;69.50;6.70;100602.00;;;;333558;29;83371;-86
2021/04/13 00:25:52;;;;;;;3.03;2.00;;;6.30;69.50;6.70;100604.00;;;;336251;28;85277;-86
2021/04/13 00:26:05;;;;;;;3.15;2.25;;;6.30;69.40;6.60;100602.00;;;;336277;28;83390;-87
2021/04/13 00:26:28;;;;;;;3.58;2.50;;;6.40;69.40;6.60;100606.00;;;;334818;28;84022;-85
2021/04/13 00:26:45;;;;;;;4.22;2.10;;;6.40;69.30;6.60;100599.00;;;;336236;28;83403;-85
2021/04/13 00:26:59;;;;;;;4.57;1.90;;;6.40;69.40;6.70;100609.00;;;;335918;28;86840;-85
2021/04/13 00:27:13;;;;;;;4.07;1.88;;;6.40;69.40;6.70;100601.00;;;;337551;28;83500;-86
2021/04/13 00:27:25;;;;;;;4.75;2.25;;;6.30;69.90;6.60;100603.00;;;;337522;28;86893;-85
2021/04/13 00:27:37;;;;;;;4.43;2.30;;;6.40;69.60;6.60;100595.00;;;;336322;28;83156;-85
2021/04/13 00:27:49;;;;;;;4.07;2.20;;;6.40;69.50;6.70;100594.00;;;;336069;28;87786;-86
2021/04/13 00:28:00;;;;;;;4.53;2.33;;;6.40;69.40;6.70;100599.00;;;;336246;28;83316;-86
2021/04/13 00:28:11;;;;;;;5.00;2.60;;;6.40;69.30;6.60;100606.00;;;;338739;28;88282;-86
2021/04/13 00:28:33;;;;;;;4.13;2.58;;;6.40;69.40;6.60;100600.00;;;;338398;28;83627;-86
2021/04/13 00:28:45;;;;;;;3.75;2.40;;;6.40;69.50;6.60;100605.00;;;;338622;28;88333;-86
2021/04/13 00:29:00;;;;;;;3.70;2.22;;;6.40;69.60;6.70;100602.00;;;;334876;29;83467;-85
2021/04/13 00:29:12;;;;;;;4.28;2.38;;;6.40;69.50;6.60;100605.00;;;;337400;28;84610;-86
2021/04/13 00:29:26;;;;;;;4.85;2.72;;;6.40;69.60;6.60;100602.00;;;;333630;29;83559;-85
2021/04/13 00:29:37;;;;;;;3.92;2.40;;;6.40;69.60;6.70;100604.00;;;;336333;28;82873;-85
2021/04/13 00:29:49;;;;;;;3.78;1.88;;;6.40;70.20;6.70;100605.00;;;;336345;28;83576;-85
2021/04/13 00:30:11;;;;;;;4.35;2.10;;;6.40;69.60;6.70;100605.00;;;;334949;29;86015;-84
2021/04/13 00:30:46;;;;;;;2.97;2.15;;;6.40;69.50;6.70;100602.00;;;;337289;28;83846;-85
2021/04/13 00:31:00;;;;;;;3.80;2.40;;;6.40;69.40;6.70;100600.00;;;;336093;28;84588;-85
2021/04/13 00:31:46;;;;;;;3.45;2.13;;;6.40;69.90;6.70;100599.00;;;;336240;28;83437;-86
2021/04/13 00:32:02;;;;;;;3.53;2.17;;;6.40;69.20;6.50;100596.00;;;;337074;28;82921;-84
2021/04/13 00:32:13;;;;;;;4.68;2.42;;;6.40;69.10;6.50;100597.00;;;;340537;28;85317;-85
2021/04/13 00:32:25;;;;;;;5.95;2.80;;;6.40;69.30;6.50;100598.00;;;;339052;28;88577;-86
2021/04/13 00:32:38;;;;;;;6.10;3.00;;;6.40;69.20;6.50;100602.00;;;;340404;28;82466;-85
2021/04/13 00:33:00;;;;;;;4.53;2.83;;;6.30;69.20;6.60;100600.00;;;;344110;28;87327;-84
2021/04/13 00:33:17;;;;;;;4.80;2.63;;;6.40;69.30;6.60;100602.00;;;;338973;28;83435;-86
2021/04/13 00:33:32;;;;;;;5.72;2.33;;;6.30;69.20;6.40;100598.00;;;;340180;28;85949;-86
2021/04/13 00:33:46;;;;;;;4.13;2.13;;;6.30;69.40;6.40;100599.00;;;;340257;28;83518;-85
2021/04/13 00:33:58;;;;;;;3.70;2.20;;;6.30;69.30;6.50;100589.00;;;;339032;28;83899;-85
2021/04/13 00:34:23;;;;;;;3.28;2.20;;;6.30;69.20;6.60;100604.00;;;;339043;28;83274;-86
2021/04/13 00:35:11;;;;;;;3.00;1.98;;;6.30;69.50;6.60;100599.00;;;;338766;28;85780;-86
2021/04/13 00:35:16;;;;;;;3.08;2.35;;;6.30;69.60;6.50;100598.00;;;;341563;28;83431;-85
2021/04/13 00:35:49;;;;;;;5.25;2.53;;;6.30;69.60;6.50;100607.00;;;;342912;28;83246;-86
2021/04/13 00:36:12;;;;;;;4.32;2.67;;;6.30;69.80;6.60;100596.00;;;;338958;28;85536;-85
2021/04/13 00:36:24;;;;;;;3.08;2.45;;;6.30;69.80;6.50;100607.00;;;;340227;28;83579;-85
2021/04/13 00:36:36;;;;;;;6.82;2.72;;;6.30;69.80;6.50;100603.00;;;;340279;28;85376;-85
2021/04/13 00:36:51;;;;;;;8.70;2.67;;;6.30;69.80;6.50;100597.00;;;;342815;28;83378;-86
2021/04/13 00:37:23;;;;;;;8.73;2.53;;;6.30;69.70;6.60;100595.00;;;;342591;28;84993;-86
2021/04/13 00:37:35;;;;;;;3.55;2.30;;;6.30;69.60;6.60;100601.00;;;;340899;28;82799;-86
2021/04/13 00:37:46;;;;;;;3.20;2.00;;;6.30;69.60;6.50;100596.00;;;;344272;28;85687;-86
2021/04/13 00:38:28;;;;;;;3.25;2.30;;;6.30;69.70;6.50;100588.00;;;;340378;28;82492;-87
2021/04/13 00:38:47;;;;;;;4.43;2.17;;;6.30;69.50;6.50;100597.00;;;;341295;28;83221;-85
2021/04/13 00:38:58;;;;;;;5.68;2.17;;;6.30;69.60;6.60;100596.00;;;;341662;28;83700;-85
2021/04/13 00:39:25;;;;;;;4.80;1.98;;;6.30;69.50;6.50;100591.00;;;;340239;28;85772;-87
2021/04/13 00:40:23;;;;;;;3.35;2.45;;;6.30;69.50;6.50;100600.00;;;;343023;28;83180;-86
2021/04/13 00:40:36;;;;;;;6.03;2.65;;;6.20;69.80;6.50;100607.00;;;;343613;28;85433;-86
2021/04/13 00:40:48;;;;;;;3.67;2.33;;;6.20;69.60;6.50;100600.00;;;;344309;28;83330;-86
2021/04/13 00:41:17;;;;;;;3.55;2.22;;;6.20;69.70;6.40;100597.00;;;;344394;28;83969;-85
2021/04/13 00:41:29;;;;;;;3.70;2.28;;;6.20;69.80;6.40;100592.00;;;;345487;28;83488;-87
2021/04/13 00:41:44;;;;;;;4.40;2.47;;;6.20;69.90;6.50;100596.00;;;;342885;28;83212;-87
2021/04/13 00:42:01;;;;;;;4.68;2.60;;;6.20;69.80;6.60;100597.00;;;;345805;28;83543;-85
2021/04/13 00:42:14;;;;;;;3.25;2.10;;;6.20;69.90;6.50;100589.00;;;;341686;28;85259;-86
2021/04/13 00:42:30;;;;;;;2.88;1.88;;;6.20;69.90;6.40;100592.00;;;;342909;28;83549;-86
2021/04/13 00:42:42;;;;;;;3.47;2.17;;;6.20;70.00;6.50;100591.00;;;;341589;28;84450;-86
2021/04/13 00:42:54;;;;;;;3.22;2.42;;;6.20;70.10;6.50;100592.00;;;;344244;28;83380;-85
2021/04/13 00:43:05;;;;;;;2.75;2.10;;;6.20;70.20;6.50;100592.00;;;;344292;28;85161;-86
2021/04/13 00:43:17;;;;;;;3.33;2.13;;;6.20;70.30;6.50;100594.00;;;;345633;28;84601;-85
2021/04/13 00:43:29;;;;;;;3.78;2.20;;;6.20;70.10;6.40;100590.00;;;;344157;28;87355;-87
2021/04/13 00:43:45;;;;;;;3.95;2.50;;;6.20;69.80;6.40;100588.00;;;;345570;28;85103;-88
2021/04/13 00:44:06;;;;;;;4.43;2.42;;;6.20;69.80;6.50;100595.00;;;;344281;28;85605;-86
2021/04/13 00:44:17;;;;;;;4.45;2.20;;;6.20;69.70;6.60;100590.00;;;;342916;28;83334;-85
2021/04/13 00:44:33;;;;;;;3.40;2.05;;;6.20;69.80;6.60;100602.00;;;;342437;28;85857;-86
2021/04/13 00:44:48;;;;;;;2.58;1.98;;;6.20;70.50;6.50;100595.00;;;;341592;28;83817;-85
2021/04/13 00:45:10;;;;;;;2.72;2.08;;;6.30;70.00;6.50;100593.00;;;;341343;28;85934;-85
2021/04/13 00:45:28;;;;;;;3.80;2.40;;;6.30;69.90;6.60;100590.00;;;;341703;28;83247;-86
2021/04/13 00:45:43;;;;;;;4.57;2.90;;;6.30;70.00;6.70;100590.00;;;;340219;28;85510;-86
2021/04/13 00:45:55;;;;;;;4.34;2.60;;;6.30;70.10;6.50;100588.00;;;;340238;28;84312;-85
2021/04/13 00:46:06;;;;;;;3.95;1.85;;;6.30;70.60;6.60;100576.00;;;;338781;28;87789;-87
2021/04/13 00:46:41;;;;;;;3.33;1.80;;;6.30;69.80;6.40;100581.00;;;;339950;28;85609;-85
2021/04/13 00:47:23;;;;;;;4.38;2.25;;;6.20;69.80;6.60;100597.00;;;;340262;28;85695;-86
2021/04/13 00:47:36;;;;;;;4.32;2.35;;;6.30;70.20;6.70;100586.00;;;;340277;28;83549;-86
2021/04/13 00:47:47;;;;;;;4.07;2.25;;;6.30;70.20;6.60;100592.00;;;;340393;28;88412;-85
2021/04/13 00:48:00;;;;;;;4.03;2.30;;;6.30;70.00;6.60;100595.00;;;;343036;28;83401;-85
2021/04/13 00:48:21;;;;;;;3.67;2.25;;;6.30;69.80;6.50;100592.00;;;;344258;28;88929;-85
2021/04/13 00:48:35;;;;;;;3.40;2.17;;;6.30;69.80;6.60;100598.00;;;;345672;28;83441;-86
2021/04/13 00:48:46;;;;;;;4.00;2.30;;;6.30;69.90;6.60;100589.00;;;;341204;28;85739;-87
2021/04/13 00:48:59;;;;;;;3.72;2.15;;;6.30;70.60;6.50;100587.00;;;;341526;28;85117;-85
2021/04/13 00:49:10;;;;;;;3.28;2.10;;;6.30;70.00;6.60;100586.00;;;;341499;28;87843;-86
2021/04/13 00:49:24;;;;;;;3.45;2.25;;;6.30;70.20;6.60;100594.00;;;;340567;28;83371;-86
2021/04/13 00:49:38;;;;;;;3.17;2.40;;;6.30;70.30;6.60;100597.00;;;;340892;28;88436;-85
2021/04/13 00:49:53;;;;;;;3.92;2.35;;;6.30;70.20;6.60;100592.00;;;;340216;28;83915;-85
2021/04/13 00:50:10;;;;;;;5.70;2.85;;;6.30;70.20;6.60;100594.00;;;;338932;28;86055;-85
2021/04/13 00:50:47;;;;;;;4.57;2.90;;;6.30;70.00;6.50;100603.00;;;;340247;28;83476;-87
2021/04/13 00:51:33;;;;;;;4.65;2.35;;;6.40;70.40;6.60;100596.00;;;;338840;28;87653;-85
2021/04/13 00:52:00;;;;;;;3.42;2.70;;;6.40;69.90;6.70;100595.00;;;;341522;28;85178;-86
2021/04/13 00:52:15;;;;;;;3.60;2.80;;;6.40;69.70;6.60;100582.00;;;;340121;28;88532;-89
2021/04/13 00:52:53;;;;;;;3.38;2.70;;;6.40;69.60;6.70;100593.00;;;;343856;28;83786;-88
2021/04/13 00:53:07;;;;;;;5.00;2.72;;;6.40;69.50;6.70;100590.00;;;;340158;28;84784;-85
2021/04/13 00:53:24;;;;;;;4.57;2.85;;;6.40;69.50;6.70;100579.00;;;;342921;28;83407;-86
2021/04/13 00:53:36;;;;;;;4.05;2.60;;;6.40;69.50;6.70;100589.00;;;;340315;28;85783;-86
2021/04/13 00:53:48;;;;;;;3.65;2.35;;;6.40;69.60;6.70;100594.00;;;;344204;28;83802;-85
2021/04/13 00:54:06;;;;;;;3.53;2.35;;;6.40;69.40;6.70;100590.00;;;;341542;28;86140;-85
2021/04/13 00:54:35;;;;;;;4.22;2.53;;;6.50;69.50;6.60;100592.00;;;;341578;28;83244;-87
2021/04/13 00:54:52;;;;;;;3.30;2.45;;;6.40;69.50;6.50;100592.00;;;;341540;28;88028;-85
2021/04/13 00:55:12;;;;;;;3.60;2.33;;;6.40;69.10;6.60;100593.00;;;;342650;28;83888;-86
2021/04/13 00:55:33;;;;;;;3.35;1.92;;;6.40;69.20;6.70;100596.00;;;;341368;28;86746;-86
2021/04/13 00:55:56;;;;;;;3.25;2.10;;;6.40;69.40;6.30;100583.00;;;;342648;28;84607;-86
2021/04/13 00:56:10;;;;;;;3.55;2.25;;;6.40;69.30;6.40;100583.00;;;;340247;28;87695;-86
2021/04/13 00:56:21;;;;;;;3.16;2.16;;;6.30;69.30;6.40;100590.00;;;;342803;28;85012;-86
2021/04/13 00:56:33;;;;;;;3.50;2.47;;;6.30;69.50;6.30;100586.00;;;;341585;28;87002;-86
2021/04/13 00:56:44;;;;;;;3.90;2.67;;;6.30;69.60;6.30;100591.00;;;;339080;28;82372;-87
2021/04/13 00:56:56;;;;;;;3.67;2.55;;;6.20;69.50;6.40;100592.00;;;;341475;28;88152;-86
2021/04/13 00:57:25;;;;;;;4.60;2.33;;;6.20;69.50;6.30;100594.00;;;;340350;28;83408;-86
2021/04/13 00:57:49;;;;;;;3.95;2.60;;;6.20;69.70;6.40;100582.00;;;;342967;28;85388;-86
2021/04/13 00:58:19;;;;;;;4.00;2.38;;;6.20;69.90;6.30;100595.00;;;;340374;28;83673;-85
2021/04/13 00:58:47;;;;;;;3.95;2.22;;;6.20;70.20;6.40;100593.00;;;;339629;28;86900;-86
2021/04/13 00:59:08;;;;;;;3.65;2.42;;;6.20;70.40;6.50;100594.00;;;;344019;28;84936;-86
2021/04/13 00:59:20;;;;;;;4.07;2.88;;;6.20;70.40;6.50;100589.00;;;;344243;28;88724;-86
2021/04/13 00:59:31;;;;;;;4.50;2.72;;;6.20;70.30;6.60;100599.00;;;;343091;28;83292;-85
2021/04/13 00:59:43;;;;;;;4.10;2.33;;;6.20;70.20;6.60;100593.00;;;;344171;28;87302;-86
2021/04/13 00:59:55;;;;;;;3.95;2.28;;;6.20;70.20;6.50;100590.00;;;;344437;28;83209;-86
2021/04/13 01:00:07;;;;;;;4.72;2.55;;;6.20;70.30;6.50;100592.00;;;;344379;28;85384;-86
2021/04/13 01:00:30;;;;;;;4.50;2.63;;;6.20;70.40;6.40;100590.00;;;;340276;28;83645;-86
2021/04/13 01:00:57;;;;;;;3.85;2.47;;;6.20;70.00;6.30;100601.00;;;;341612;28;85849;-87
2021/04/13 01:01:23;;;;;;;4.72;2.65;;;6.20;70.50;6.40;100593.00;;;;340281;28;83338;-86
2021/04/13 01:01:37;;;;;;;2.72;1.95;;;6.20;70.10;6.40;100594.00;;;;342828;28;85981;-87
2021/04/13 01:01:56;;;;;;;5.68;2.90;;;6.20;70.10;6.50;100593.00;;;;338901;28;85443;-86
2021/04/13 01:02:30;;;;;;;6.45;3.10;;;6.10;70.70;6.30;100591.00;;;;338892;28;87426;-86
2021/04/13 01:02:42;;;;;;;5.32;2.33;;;6.20;70.00;6.30;100592.00;;;;337552;28;83257;-88
2021/04/13 01:03:00;;;;;;;5.35;2.58;;;6.20;70.00;6.40;100590.00;;;;341554;28;85064;-86
2021/04/13 01:03:13;;;;;;;3.85;2.80;;;6.20;70.20;6.40;100592.00;;;;341721;28;83217;-86
2021/04/13 01:03:27;;;;;;;4.38;2.58;;;6.10;70.10;6.40;100590.00;;;;340269;28;85212;-87
2021/04/13 01:03:47;;;;;;;4.44;2.40;;;6.20;70.40;6.30;100594.00;;;;343042;28;83524;-86
2021/04/13 01:04:04;;;;;;;4.70;2.58;;;6.10;70.20;6.40;100590.00;;;;342902;28;86755;-86
2021/04/13 01:04:18;;;;;;;4.20;2.35;;;6.20;70.10;6.40;100581.00;;;;339905;28;83465;-85
2021/04/13 01:04:39;;;;;;;3.70;2.20;;;6.10;70.10;6.50;100583.00;;;;339941;28;85837;-87
2021/04/13 01:05:04;;;;;;;4.00;2.47;;;6.20;70.10;6.40;100588.00;;;;344194;28;83426;-87
2021/04/13 01:05:21;;;;;;;3.38;2.05;;;6.20;70.10;6.40;100580.00;;;;341559;28;86631;-86
2021/04/13 01:05:44;;;;;;;3.95;2.42;;;6.20;70.20;6.40;100587.00;;;;338767;28;84130;-86
2021/04/13 01:05:57;;;;;;;3.00;2.20;;;6.20;70.00;6.50;100589.00;;;;343038;28;83814;-86
2021/04/13 01:06:19;;;;;;;3.10;2.17;;;6.20;70.50;6.40;100589.00;;;;341702;28;82173;-86
2021/04/13 01:06:32;;;;;;;3.67;2.50;;;6.20;70.20;6.30;100588.00;;;;342871;28;85619;-86
2021/04/13 01:06:44;;;;;;;3.50;2.35;;;6.20;70.40;6.30;100588.00;;;;340091;28;84216;-87
2021/04/13 01:07:16;;;;;;;3.60;2.53;;;6.20;70.30;6.40;100590.00;;;;341572;28;85694;-86
2021/04/13 01:07:42;;;;;;;3.78;2.42;;;6.20;70.20;6.40;100586.00;;;;343087;28;83456;-87
2021/04/13 01:07:53;;;;;;;3.55;2.63;;;6.20;70.30;6.40;100580.00;;;;340333;28;85918;-86
2021/04/13 01:08:22;;;;;;;3.50;2.58;;;6.20;70.50;6.40;100578.00;;;;341315;28;84111;-86
2021/04/13 01:08:39;;;;;;;4.05;2.00;;;6.20;70.40;6.40;100579.00;;;;342619;28;86070;-86
2021/04/13 01:09:21;;;;;;;4.60;2.40;;;6.20;70.20;6.50;100601.00;;;;344349;28;82675;-86
2021/04/13 01:09:32;;;;;;;3.63;2.47;;;6.20;70.20;6.40;100579.00;;;;339976;28;87412;-86
2021/04/13 01:09:51;;;;;;;3.53;2.72;;;6.20;70.00;6.30;100592.00;;;;339083;28;83424;-86
2021/04/13 01:10:37;;;;;;;3.15;2.55;;;6.20;69.80;6.40;100592.00;;;;340215;28;85839;-87
2021/04/13 01:10:49;;;;;;;4.28;2.40;;;6.20;69.80;6.40;100575.00;;;;341643;28;82426;-86
2021/04/13 01:11:19;;;;;;;4.03;2.33;;;6.20;70.00;6.50;100582.00;;;;340142;28;85236;-86
2021/04/13 01:11:36;;;;;;;4.55;2.10;;;6.20;70.10;6.50;100592.00;;;;341212;28;83190;-86
2021/04/13 01:12:07;;;;;;;4.30;2.17;;;6.20;70.30;6.50;100592.00;;;;341406;28;84647;-86
2021/04/13 01:12:26;;;;;;;3.90;2.22;;;6.20;70.40;6.60;100589.00;;;;338966;28;82434;-86
2021/04/13 01:12:41;;;;;;;4.55;2.58;;;6.20;70.40;6.60;100586.00;;;;341626;28;83596;-86
2021/04/13 01:13:52;;;;;;;3.90;2.30;;;6.30;70.40;6.60;100588.00;;;;341561;28;84453;-85
2021/04/13 01:14:04;;;;;;;3.65;2.38;;;6.30;70.20;6.60;100594.00;;;;336787;28;84090;-86
2021/04/13 01:14:15;;;;;;;3.75;2.45;;;6.30;70.10;6.60;100578.00;;;;341701;28;83296;-86
2021/04/13 01:14:27;;;;;;;3.25;2.55;;;6.30;70.20;6.60;100582.00;;;;343578;28;84804;-85
2021/04/13 01:14:38;;;;;;;3.13;2.40;;;6.30;70.20;6.50;100589.00;;;;341714;28;83348;-86
2021/04/13 01:14:50;;;;;;;4.32;2.53;;;6.30;70.10;6.30;100583.00;;;;343094;28;82772;-88
2021/04/13 01:15:02;;;;;;;4.20;2.20;;;6.30;70.20;6.50;100583.00;;;;344135;28;82517;-86
2021/04/13 01:15:15;;;;;;;3.75;2.35;;;6.30;70.20;6.50;100589.00;;;;339898;28;84544;-86
2021/04/13 01:15:26;;;;;;;3.80;2.42;;;6.30;70.10;6.50;100583.00;;;;344151;28;84461;-85
2021/04/13 01:15:45;;;;;;;3.80;2.35;;;6.30;70.00;6.50;100587.00;;;;344311;28;83955;-85
2021/04/13 01:15:57;;;;;;;3.00;2.05;;;6.30;70.10;6.60;100581.00;;;;341748;28;83411;-86
2021/04/13 01:16:10;;;;;;;3.67;2.47;;;6.30;70.30;6.60;100588.00;;;;342970;28;84580;-85
2021/04/13 01:16:33;;;;;;;4.10;2.70;;;6.30;70.40;6.50;100594.00;;;;341563;28;82679;-87
2021/04/13 01:16:57;;;;;;;3.80;2.35;;;6.30;70.30;6.60;100582.00;;;;341500;28;84664;-85
2021/04/13 01:17:09;;;;;;;4.07;2.40;;;6.30;70.40;6.50;100587.00;;;;341283;28;83457;-86
2021/04/13 01:17:22;;;;;;;4.00;2.33;;;6.30;70.10;6.50;100581.00;;;;342938;28;85621;-87
2021/04/13 01:17:33;;;;;;;4.03;2.72;;;6.30;70.10;6.60;100588.00;;;;341598;28;83379;-86
2021/04/13 01:17:45;;;;;;;4.38;2.72;;;6.30;70.10;6.60;100590.00;;;;341542;28;84662;-86
2021/04/13 01:17:57;;;;;;;4.32;2.78;;;6.30;70.10;6.60;100583.00;;;;345768;28;83297;-85
2021/04/13 01:18:17;;;;;;;3.92;2.60;;;6.30;70.10;6.40;100582.00;;;;344256;28;83245;-86
2021/04/13 01:18:37;;;;;;;3.92;2.55;;;6.30;69.80;6.50;100569.00;;;;341621;28;83346;-86
2021/04/13 01:18:56;;;;;;;4.55;2.72;;;6.30;69.80;6.50;100592.00;;;;341595;28;85296;-87
2021/04/13 01:19:50;;;;;;;3.20;2.55;;;6.40;70.00;6.50;100589.00;;;;343827;28;85067;-87
2021/04/13 01:20:21;;;;;;;4.05;2.25;;;6.30;70.00;6.60;100583.00;;;;341503;28;86098;-87
2021/04/13 01:20:45;;;;;;;4.57;2.63;;;6.30;70.30;6.60;100587.00;;;;342876;28;82265;-86
2021/04/13 01:21:22;;;;;;;4.38;2.40;;;6.30;70.00;6.50;100576.00;;;;343890;28;86946;-86
2021/04/13 01:21:58;;;;;;;5.78;2.20;;;6.30;70.00;6.30;100572.00;;;;342786;28;83532;-87
2021/04/13 01:22:38;;;;;;;4.10;2.03;;;6.30;69.90;6.40;100574.00;;;;342843;28;85506;-87
2021/04/13 01:23:13;;;;;;;4.18;2.58;;;6.30;70.00;6.30;100576.00;;;;342846;28;85698;-85
2021/04/13 01:23:38;;;;;;;4.20;2.83;;;6.20;70.10;6.40;100580.00;;;;343129;28;83576;-88
2021/04/13 01:23:54;;;;;;;4.00;2.97;;;6.20;70.00;6.30;100589.00;;;;341646;28;85718;-86
2021/04/13 01:24:10;;;;;;;4.32;2.83;;;6.20;69.90;6.40;100569.00;;;;341711;28;83622;-86
2021/04/13 01:24:29;;;;;;;4.20;2.30;;;6.20;70.00;6.40;100570.00;;;;344101;28;85377;-87